sensor_id;sensor_type;location;lat;lon;timestamp;P1;durP1;ratioP1;P2;durP2;ratioP2
19016;SDS011;9641;51.494;6.670;2023-04-24T00:01:54;2.73;;;1.50;;
19016;SDS011;9641;51.494;6.670;2023-04-24T00:04:23;2.00;;;1.70;;
19016;SDS011;9641;51.494;6.670;2023-04-24T00:06:51;4.60;;;1.80;;
19016;SDS011;9641;51.494;6.670;2023-04-24T00:09:22;2.13;;;1.67;;
19016;SDS011;9641;51.494;6.670;2023-04-24T00:11:51;3.60;;;1.70;;
19016;SDS011;9641;51.494;6.670;2023-04-24T00:14:18;1.83;;;1.73;;
19016;SDS011;9641;51.494;6.670;2023-04-24T00:16:45;3.70;;;2.00;;
19016;SDS011;9641;51.494;6.670;2023-04-24T00:19:12;4.47;;;2.17;;
19016;SDS011;9641;51.494;6.670;2023-04-24T00:21:40;3.87;;;2.50;;
19016;SDS011;9641;51.494;6.670;2023-04-24T00:24:07;3.30;;;2.47;;
19016;SDS011;9641;51.494;6.670;2023-04-24T00:26:56;2.77;;;2.00;;
19016;SDS011;9641;51.494;6.670;2023-04-24T00:29:23;3.40;;;2.37;;
19016;SDS011;9641;51.494;6.670;2023-04-24T00:31:50;3.30;;;2.50;;
19016;SDS011;9641;51.494;6.670;2023-04-24T00:34:17;5.73;;;2.67;;
19016;SDS011;9641;51.494;6.670;2023-04-24T00:36:44;2.43;;;2.23;;
19016;SDS011;9641;51.494;6.670;2023-04-24T00:39:11;5.97;;;2.80;;
19016;SDS011;9641;51.494;6.670;2023-04-24T00:41:38;2.57;;;2.27;;
19016;SDS011;9641;51.494;6.670;2023-04-24T00:44:06;3.80;;;2.90;;
19016;SDS011;9641;51.494;6.670;2023-04-24T00:46:34;4.17;;;2.90;;
19016;SDS011;9641;51.494;6.670;2023-04-24T00:49:02;3.10;;;2.80;;
19016;SDS011;9641;51.494;6.670;2023-04-24T00:51:31;5.03;;;3.00;;
19016;SDS011;9641;51.494;6.670;2023-04-24T00:53:58;3.47;;;2.97;;
19016;SDS011;9641;51.494;6.670;2023-04-24T00:56:25;6.03;;;3.20;;
19016;SDS011;9641;51.494;6.670;2023-04-24T00:58:52;6.53;;;3.77;;
19016;SDS011;9641;51.494;6.670;2023-04-24T01:01:21;8.57;;;3.50;;
19016;SDS011;9641;51.494;6.670;2023-04-24T01:03:51;4.47;;;3.93;;
19016;SDS011;9641;51.494;6.670;2023-04-24T01:06:19;6.63;;;4.00;;
19016;SDS011;9641;51.494;6.670;2023-04-24T01:08:48;5.87;;;3.90;;
19016;SDS011;9641;51.494;6.670;2023-04-24T01:11:15;7.20;;;3.97;;
19016;SDS011;9641;51.494;6.670;2023-04-24T01:13:44;6.47;;;4.20;;
19016;SDS011;9641;51.494;6.670;2023-04-24T01:16:12;7.53;;;4.30;;
19016;SDS011;9641;51.494;6.670;2023-04-24T01:18:41;5.53;;;4.37;;
19016;SDS011;9641;51.494;6.670;2023-04-24T01:21:10;6.33;;;4.30;;
19016;SDS011;9641;51.494;6.670;2023-04-24T01:23:42;7.87;;;5.27;;
19016;SDS011;9641;51.494;6.670;2023-04-24T01:26:10;11.27;;;5.73;;
19016;SDS011;9641;51.494;6.670;2023-04-24T01:28:37;5.80;;;4.73;;
19016;SDS011;9641;51.494;6.670;2023-04-24T01:31:04;8.77;;;5.53;;
19016;SDS011;9641;51.494;6.670;2023-04-24T01:33:32;9.33;;;4.93;;
19016;SDS011;9641;51.494;6.670;2023-04-24T01:35:59;12.03;;;5.20;;
19016;SDS011;9641;51.494;6.670;2023-04-24T01:38:26;8.33;;;5.43;;
19016;SDS011;9641;51.494;6.670;2023-04-24T01:40:55;6.50;;;4.83;;
19016;SDS011;9641;51.494;6.670;2023-04-24T01:43:23;8.67;;;5.83;;
19016;SDS011;9641;51.494;6.670;2023-04-24T01:45:51;7.33;;;5.90;;
19016;SDS011;9641;51.494;6.670;2023-04-24T01:48:17;8.60;;;5.97;;
19016;SDS011;9641;51.494;6.670;2023-04-24T01:50:45;10.33;;;5.70;;
19016;SDS011;9641;51.494;6.670;2023-04-24T01:53:12;9.40;;;5.60;;
19016;SDS011;9641;51.494;6.670;2023-04-24T01:55:39;10.57;;;5.77;;
19016;SDS011;9641;51.494;6.670;2023-04-24T01:58:08;7.27;;;5.40;;
19016;SDS011;9641;51.494;6.670;2023-04-24T02:00:35;10.07;;;5.70;;
19016;SDS011;9641;51.494;6.670;2023-04-24T02:03:03;8.47;;;5.37;;
19016;SDS011;9641;51.494;6.670;2023-04-24T02:05:29;8.03;;;5.67;;
19016;SDS011;9641;51.494;6.670;2023-04-24T02:07:57;9.07;;;5.50;;
19016;SDS011;9641;51.494;6.670;2023-04-24T02:10:24;8.90;;;5.43;;
19016;SDS011;9641;51.494;6.670;2023-04-24T02:12:51;7.70;;;5.43;;
19016;SDS011;9641;51.494;6.670;2023-04-24T02:15:24;9.63;;;6.40;;
19016;SDS011;9641;51.494;6.670;2023-04-24T02:17:51;8.07;;;6.17;;
19016;SDS011;9641;51.494;6.670;2023-04-24T02:20:18;8.67;;;6.27;;
19016;SDS011;9641;51.494;6.670;2023-04-24T02:22:45;11.87;;;6.90;;
19016;SDS011;9641;51.494;6.670;2023-04-24T02:25:17;10.00;;;6.60;;
19016;SDS011;9641;51.494;6.670;2023-04-24T02:27:45;8.00;;;6.50;;
19016;SDS011;9641;51.494;6.670;2023-04-24T02:30:12;11.30;;;6.90;;
19016;SDS011;9641;51.494;6.670;2023-04-24T02:32:41;11.77;;;7.77;;
19016;SDS011;9641;51.494;6.670;2023-04-24T02:35:09;15.73;;;7.60;;
19016;SDS011;9641;51.494;6.670;2023-04-24T02:37:36;11.80;;;7.23;;
19016;SDS011;9641;51.494;6.670;2023-04-24T02:40:04;15.63;;;7.60;;
19016;SDS011;9641;51.494;6.670;2023-04-24T02:42:32;13.37;;;8.30;;
19016;SDS011;9641;51.494;6.670;2023-04-24T02:44:59;17.13;;;8.67;;
19016;SDS011;9641;51.494;6.670;2023-04-24T02:47:26;25.40;;;9.90;;
19016;SDS011;9641;51.494;6.670;2023-04-24T02:49:55;13.57;;;7.97;;
19016;SDS011;9641;51.494;6.670;2023-04-24T02:52:22;15.90;;;9.07;;
19016;SDS011;9641;51.494;6.670;2023-04-24T02:54:49;18.53;;;10.30;;
19016;SDS011;9641;51.494;6.670;2023-04-24T02:57:16;16.20;;;9.90;;
19016;SDS011;9641;51.494;6.670;2023-04-24T02:59:44;20.20;;;10.00;;
19016;SDS011;9641;51.494;6.670;2023-04-24T03:02:13;15.03;;;9.37;;
19016;SDS011;9641;51.494;6.670;2023-04-24T03:04:43;24.40;;;10.17;;
19016;SDS011;9641;51.494;6.670;2023-04-24T03:07:12;18.33;;;10.10;;
19016;SDS011;9641;51.494;6.670;2023-04-24T03:09:39;21.73;;;10.10;;
19016;SDS011;9641;51.494;6.670;2023-04-24T03:12:07;17.20;;;10.47;;
19016;SDS011;9641;51.494;6.670;2023-04-24T03:14:34;19.17;;;11.07;;
19016;SDS011;9641;51.494;6.670;2023-04-24T03:17:01;19.37;;;10.80;;
19016;SDS011;9641;51.494;6.670;2023-04-24T03:19:28;18.67;;;9.83;;
19016;SDS011;9641;51.494;6.670;2023-04-24T03:22:07;21.13;;;10.53;;
19016;SDS011;9641;51.494;6.670;2023-04-24T03:24:36;18.37;;;10.57;;
19016;SDS011;9641;51.494;6.670;2023-04-24T03:27:03;21.83;;;11.23;;
19016;SDS011;9641;51.494;6.670;2023-04-24T03:29:47;18.90;;;11.23;;
19016;SDS011;9641;51.494;6.670;2023-04-24T03:32:17;19.20;;;10.57;;
19016;SDS011;9641;51.494;6.670;2023-04-24T03:34:45;19.33;;;11.20;;
19016;SDS011;9641;51.494;6.670;2023-04-24T03:37:14;19.77;;;11.00;;
19016;SDS011;9641;51.494;6.670;2023-04-24T03:39:47;17.50;;;10.70;;
19016;SDS011;9641;51.494;6.670;2023-04-24T03:42:17;17.73;;;10.70;;
19016;SDS011;9641;51.494;6.670;2023-04-24T03:44:50;21.00;;;11.30;;
19016;SDS011;9641;51.494;6.670;2023-04-24T03:47:22;19.17;;;10.33;;
19016;SDS011;9641;51.494;6.670;2023-04-24T03:49:50;16.20;;;10.57;;
19016;SDS011;9641;51.494;6.670;2023-04-24T03:52:17;21.37;;;11.37;;
19016;SDS011;9641;51.494;6.670;2023-04-24T03:54:44;24.70;;;11.33;;
19016;SDS011;9641;51.494;6.670;2023-04-24T03:57:14;22.17;;;11.03;;
19016;SDS011;9641;51.494;6.670;2023-04-24T03:59:52;25.47;;;11.20;;
19016;SDS011;9641;51.494;6.670;2023-04-24T04:02:19;25.33;;;10.63;;
19016;SDS011;9641;51.494;6.670;2023-04-24T04:04:47;22.40;;;11.20;;
19016;SDS011;9641;51.494;6.670;2023-04-24T04:07:14;20.73;;;10.53;;
19016;SDS011;9641;51.494;6.670;2023-04-24T04:09:42;20.97;;;10.47;;
19016;SDS011;9641;51.494;6.670;2023-04-24T04:12:09;22.90;;;10.17;;
19016;SDS011;9641;51.494;6.670;2023-04-24T04:14:39;18.30;;;10.60;;
19016;SDS011;9641;51.494;6.670;2023-04-24T04:17:06;16.87;;;9.63;;
19016;SDS011;9641;51.494;6.670;2023-04-24T04:19:33;17.13;;;11.27;;
19016;SDS011;9641;51.494;6.670;2023-04-24T04:22:00;17.90;;;10.07;;
19016;SDS011;9641;51.494;6.670;2023-04-24T04:24:36;12.93;;;9.87;;
19016;SDS011;9641;51.494;6.670;2023-04-24T04:27:06;18.10;;;9.87;;
19016;SDS011;9641;51.494;6.670;2023-04-24T04:29:44;22.20;;;10.17;;
19016;SDS011;9641;51.494;6.670;2023-04-24T04:32:13;14.57;;;9.47;;
19016;SDS011;9641;51.494;6.670;2023-04-24T04:34:41;17.10;;;9.33;;
19016;SDS011;9641;51.494;6.670;2023-04-24T04:37:11;15.10;;;9.27;;
19016;SDS011;9641;51.494;6.670;2023-04-24T04:39:57;18.57;;;9.87;;
19016;SDS011;9641;51.494;6.670;2023-04-24T04:42:27;11.97;;;9.03;;
19016;SDS011;9641;51.494;6.670;2023-04-24T04:44:55;15.77;;;10.17;;
19016;SDS011;9641;51.494;6.670;2023-04-24T04:47:29;19.40;;;9.33;;
19016;SDS011;9641;51.494;6.670;2023-04-24T04:49:58;16.43;;;9.00;;
19016;SDS011;9641;51.494;6.670;2023-04-24T04:52:27;15.20;;;8.93;;
19016;SDS011;9641;51.494;6.670;2023-04-24T04:55:10;16.83;;;9.20;;
19016;SDS011;9641;51.494;6.670;2023-04-24T04:58:05;19.43;;;9.30;;
19016;SDS011;9641;51.494;6.670;2023-04-24T05:00:34;12.00;;;8.50;;
19016;SDS011;9641;51.494;6.670;2023-04-24T05:03:10;15.47;;;8.63;;
19016;SDS011;9641;51.494;6.670;2023-04-24T05:05:37;12.27;;;7.77;;
19016;SDS011;9641;51.494;6.670;2023-04-24T05:08:08;10.90;;;7.97;;
19016;SDS011;9641;51.494;6.670;2023-04-24T05:10:36;12.93;;;7.10;;
19016;SDS011;9641;51.494;6.670;2023-04-24T05:13:04;10.63;;;8.10;;
19016;SDS011;9641;51.494;6.670;2023-04-24T05:15:33;14.13;;;9.27;;
19016;SDS011;9641;51.494;6.670;2023-04-24T05:18:00;12.70;;;8.07;;
19016;SDS011;9641;51.494;6.670;2023-04-24T05:20:28;12.10;;;7.13;;
19016;SDS011;9641;51.494;6.670;2023-04-24T05:22:55;14.17;;;7.60;;
19016;SDS011;9641;51.494;6.670;2023-04-24T05:25:27;9.30;;;7.43;;
19016;SDS011;9641;51.494;6.670;2023-04-24T05:27:58;11.67;;;6.77;;
19016;SDS011;9641;51.494;6.670;2023-04-24T05:30:25;16.03;;;7.10;;
19016;SDS011;9641;51.494;6.670;2023-04-24T05:32:54;13.13;;;7.43;;
19016;SDS011;9641;51.494;6.670;2023-04-24T05:35:22;11.30;;;7.80;;
19016;SDS011;9641;51.494;6.670;2023-04-24T05:37:49;11.57;;;6.90;;
19016;SDS011;9641;51.494;6.670;2023-04-24T05:40:17;14.83;;;8.20;;
19016;SDS011;9641;51.494;6.670;2023-04-24T05:42:44;13.47;;;7.80;;
19016;SDS011;9641;51.494;6.670;2023-04-24T05:45:11;11.07;;;7.40;;
19016;SDS011;9641;51.494;6.670;2023-04-24T05:47:41;11.07;;;8.10;;
19016;SDS011;9641;51.494;6.670;2023-04-24T05:50:11;15.13;;;8.13;;
19016;SDS011;9641;51.494;6.670;2023-04-24T05:52:38;11.43;;;8.23;;
19016;SDS011;9641;51.494;6.670;2023-04-24T05:55:17;15.97;;;8.93;;
19016;SDS011;9641;51.494;6.670;2023-04-24T05:57:44;12.07;;;8.53;;
19016;SDS011;9641;51.494;6.670;2023-04-24T06:00:11;15.27;;;9.57;;
19016;SDS011;9641;51.494;6.670;2023-04-24T06:02:43;14.33;;;9.10;;
19016;SDS011;9641;51.494;6.670;2023-04-24T06:05:13;13.03;;;8.80;;
19016;SDS011;9641;51.494;6.670;2023-04-24T06:07:40;15.83;;;10.10;;
19016;SDS011;9641;51.494;6.670;2023-04-24T06:10:08;12.93;;;10.27;;
19016;SDS011;9641;51.494;6.670;2023-04-24T06:12:40;15.43;;;9.63;;
19016;SDS011;9641;51.494;6.670;2023-04-24T06:15:14;17.43;;;10.47;;
19016;SDS011;9641;51.494;6.670;2023-04-24T06:17:50;16.67;;;10.20;;
19016;SDS011;9641;51.494;6.670;2023-04-24T06:20:19;16.67;;;10.67;;
19016;SDS011;9641;51.494;6.670;2023-04-24T06:22:46;17.43;;;10.10;;
19016;SDS011;9641;51.494;6.670;2023-04-24T06:25:13;15.60;;;9.87;;
19016;SDS011;9641;51.494;6.670;2023-04-24T06:27:40;13.30;;;9.70;;
19016;SDS011;9641;51.494;6.670;2023-04-24T06:30:08;16.43;;;9.87;;
19016;SDS011;9641;51.494;6.670;2023-04-24T06:32:36;17.27;;;8.97;;
19016;SDS011;9641;51.494;6.670;2023-04-24T06:35:03;17.37;;;9.20;;
19016;SDS011;9641;51.494;6.670;2023-04-24T06:37:33;12.50;;;9.17;;
19016;SDS011;9641;51.494;6.670;2023-04-24T06:40:00;13.77;;;9.03;;
19016;SDS011;9641;51.494;6.670;2023-04-24T06:42:27;14.87;;;9.03;;
19016;SDS011;9641;51.494;6.670;2023-04-24T06:44:54;14.07;;;8.57;;
19016;SDS011;9641;51.494;6.670;2023-04-24T06:47:21;12.77;;;9.13;;
19016;SDS011;9641;51.494;6.670;2023-04-24T06:49:48;13.07;;;8.73;;
19016;SDS011;9641;51.494;6.670;2023-04-24T06:52:17;10.33;;;8.00;;
19016;SDS011;9641;51.494;6.670;2023-04-24T06:54:46;10.23;;;7.10;;
19016;SDS011;9641;51.494;6.670;2023-04-24T06:57:12;11.13;;;6.43;;
19016;SDS011;9641;51.494;6.670;2023-04-24T06:59:41;10.53;;;7.63;;
19016;SDS011;9641;51.494;6.670;2023-04-24T07:02:08;10.17;;;7.43;;
19016;SDS011;9641;51.494;6.670;2023-04-24T07:04:35;9.53;;;6.57;;
19016;SDS011;9641;51.494;6.670;2023-04-24T07:07:02;10.10;;;7.40;;
19016;SDS011;9641;51.494;6.670;2023-04-24T07:09:29;9.03;;;6.33;;
19016;SDS011;9641;51.494;6.670;2023-04-24T07:11:58;8.13;;;6.17;;
19016;SDS011;9641;51.494;6.670;2023-04-24T07:14:25;8.23;;;5.77;;
19016;SDS011;9641;51.494;6.670;2023-04-24T07:16:52;4.97;;;4.23;;
19016;SDS011;9641;51.494;6.670;2023-04-24T07:19:19;4.67;;;3.40;;
19016;SDS011;9641;51.494;6.670;2023-04-24T07:21:46;3.53;;;3.10;;
19016;SDS011;9641;51.494;6.670;2023-04-24T07:24:13;3.33;;;3.00;;
19016;SDS011;9641;51.494;6.670;2023-04-24T07:26:39;2.97;;;2.57;;
19016;SDS011;9641;51.494;6.670;2023-04-24T07:29:08;3.97;;;2.97;;
19016;SDS011;9641;51.494;6.670;2023-04-24T07:31:35;2.67;;;2.47;;
19016;SDS011;9641;51.494;6.670;2023-04-24T07:34:03;3.13;;;2.87;;
19016;SDS011;9641;51.494;6.670;2023-04-24T07:36:30;2.73;;;2.53;;
19016;SDS011;9641;51.494;6.670;2023-04-24T07:38:57;5.10;;;3.13;;
19016;SDS011;9641;51.494;6.670;2023-04-24T07:41:24;3.40;;;3.10;;
19016;SDS011;9641;51.494;6.670;2023-04-24T07:43:52;3.70;;;3.40;;
19016;SDS011;9641;51.494;6.670;2023-04-24T07:46:21;5.33;;;3.50;;
19016;SDS011;9641;51.494;6.670;2023-04-24T07:48:49;2.57;;;2.37;;
19016;SDS011;9641;51.494;6.670;2023-04-24T07:51:16;3.07;;;2.77;;
19016;SDS011;9641;51.494;6.670;2023-04-24T07:53:43;2.37;;;2.20;;
19016;SDS011;9641;51.494;6.670;2023-04-24T07:56:10;3.13;;;2.23;;
19016;SDS011;9641;51.494;6.670;2023-04-24T07:58:37;2.37;;;2.20;;
19016;SDS011;9641;51.494;6.670;2023-04-24T08:01:05;4.50;;;2.33;;
19016;SDS011;9641;51.494;6.670;2023-04-24T08:03:33;2.40;;;2.20;;
19016;SDS011;9641;51.494;6.670;2023-04-24T08:06:00;2.63;;;1.90;;
19016;SDS011;9641;51.494;6.670;2023-04-24T08:08:27;2.50;;;2.30;;
19016;SDS011;9641;51.494;6.670;2023-04-24T08:10:54;3.60;;;2.17;;
19016;SDS011;9641;51.494;6.670;2023-04-24T08:13:21;3.10;;;2.13;;
19016;SDS011;9641;51.494;6.670;2023-04-24T08:15:48;2.13;;;2.00;;
19016;SDS011;9641;51.494;6.670;2023-04-24T08:18:15;2.37;;;2.07;;
19016;SDS011;9641;51.494;6.670;2023-04-24T08:20:43;2.57;;;2.37;;
19016;SDS011;9641;51.494;6.670;2023-04-24T08:23:10;3.10;;;2.20;;
19016;SDS011;9641;51.494;6.670;2023-04-24T08:25:37;2.47;;;2.27;;
19016;SDS011;9641;51.494;6.670;2023-04-24T08:28:05;2.00;;;1.90;;
19016;SDS011;9641;51.494;6.670;2023-04-24T08:30:32;4.00;;;2.07;;
19016;SDS011;9641;51.494;6.670;2023-04-24T08:32:59;2.17;;;2.00;;
19016;SDS011;9641;51.494;6.670;2023-04-24T08:35:26;2.20;;;2.00;;
19016;SDS011;9641;51.494;6.670;2023-04-24T08:37:54;2.47;;;2.27;;
19016;SDS011;9641;51.494;6.670;2023-04-24T08:40:22;2.73;;;2.00;;
19016;SDS011;9641;51.494;6.670;2023-04-24T08:42:54;1.90;;;1.80;;
19016;SDS011;9641;51.494;6.670;2023-04-24T08:45:22;1.87;;;1.70;;
19016;SDS011;9641;51.494;6.670;2023-04-24T08:47:52;2.03;;;1.83;;
19016;SDS011;9641;51.494;6.670;2023-04-24T08:50:19;2.20;;;2.00;;
19016;SDS011;9641;51.494;6.670;2023-04-24T08:52:48;1.80;;;1.70;;
19016;SDS011;9641;51.494;6.670;2023-04-24T08:55:19;2.13;;;1.93;;
19016;SDS011;9641;51.494;6.670;2023-04-24T08:57:50;2.80;;;2.60;;
19016;SDS011;9641;51.494;6.670;2023-04-24T09:00:18;4.13;;;3.73;;
19016;SDS011;9641;51.494;6.670;2023-04-24T09:02:47;6.97;;;5.50;;
19016;SDS011;9641;51.494;6.670;2023-04-24T09:05:16;12.57;;;7.50;;
19016;SDS011;9641;51.494;6.670;2023-04-24T09:07:44;13.23;;;7.43;;
19016;SDS011;9641;51.494;6.670;2023-04-24T09:10:15;11.37;;;7.50;;
19016;SDS011;9641;51.494;6.670;2023-04-24T09:12:44;13.97;;;8.50;;
19016;SDS011;9641;51.494;6.670;2023-04-24T09:15:12;11.03;;;7.73;;
19016;SDS011;9641;51.494;6.670;2023-04-24T09:17:40;14.80;;;8.60;;
19016;SDS011;9641;51.494;6.670;2023-04-24T09:20:07;14.17;;;8.97;;
19016;SDS011;9641;51.494;6.670;2023-04-24T09:22:36;13.10;;;7.77;;
19016;SDS011;9641;51.494;6.670;2023-04-24T09:25:03;11.30;;;7.53;;
19016;SDS011;9641;51.494;6.670;2023-04-24T09:27:32;13.03;;;8.13;;
19016;SDS011;9641;51.494;6.670;2023-04-24T09:30:01;13.40;;;7.93;;
19016;SDS011;9641;51.494;6.670;2023-04-24T09:32:28;12.00;;;8.50;;
19016;SDS011;9641;51.494;6.670;2023-04-24T09:35:06;11.17;;;7.80;;
19016;SDS011;9641;51.494;6.670;2023-04-24T09:37:35;17.60;;;8.67;;
19016;SDS011;9641;51.494;6.670;2023-04-24T09:40:10;16.63;;;8.93;;
19016;SDS011;9641;51.494;6.670;2023-04-24T09:42:38;14.83;;;8.67;;
19016;SDS011;9641;51.494;6.670;2023-04-24T09:45:10;16.47;;;9.30;;
19016;SDS011;9641;51.494;6.670;2023-04-24T09:47:37;13.83;;;9.20;;
19016;SDS011;9641;51.494;6.670;2023-04-24T09:50:11;17.60;;;10.10;;
19016;SDS011;9641;51.494;6.670;2023-04-24T09:52:40;20.63;;;9.57;;
19016;SDS011;9641;51.494;6.670;2023-04-24T09:55:13;20.00;;;9.97;;
19016;SDS011;9641;51.494;6.670;2023-04-24T09:57:49;16.80;;;10.13;;
19016;SDS011;9641;51.494;6.670;2023-04-24T10:00:25;21.53;;;9.40;;
19016;SDS011;9641;51.494;6.670;2023-04-24T10:02:56;16.93;;;8.57;;
19016;SDS011;9641;51.494;6.670;2023-04-24T10:05:24;13.53;;;8.83;;
19016;SDS011;9641;51.494;6.670;2023-04-24T10:07:56;17.80;;;8.07;;
19016;SDS011;9641;51.494;6.670;2023-04-24T10:10:24;15.70;;;7.53;;
19016;SDS011;9641;51.494;6.670;2023-04-24T10:12:52;14.60;;;7.03;;
19016;SDS011;9641;51.494;6.670;2023-04-24T10:15:19;22.37;;;7.43;;
19016;SDS011;9641;51.494;6.670;2023-04-24T10:17:49;11.03;;;7.03;;
19016;SDS011;9641;51.494;6.670;2023-04-24T10:20:19;17.80;;;6.80;;
19016;SDS011;9641;51.494;6.670;2023-04-24T10:22:47;15.43;;;6.57;;
19016;SDS011;9641;51.494;6.670;2023-04-24T10:25:19;16.13;;;7.23;;
19016;SDS011;9641;51.494;6.670;2023-04-24T10:27:47;17.80;;;6.53;;
19016;SDS011;9641;51.494;6.670;2023-04-24T10:30:15;23.60;;;8.17;;
19016;SDS011;9641;51.494;6.670;2023-04-24T10:32:43;18.40;;;6.93;;
19016;SDS011;9641;51.494;6.670;2023-04-24T10:35:13;17.67;;;6.83;;
19016;SDS011;9641;51.494;6.670;2023-04-24T10:37:42;17.77;;;7.10;;
19016;SDS011;9641;51.494;6.670;2023-04-24T10:40:12;19.23;;;7.13;;
19016;SDS011;9641;51.494;6.670;2023-04-24T10:42:47;25.57;;;6.80;;
19016;SDS011;9641;51.494;6.670;2023-04-24T10:45:17;11.57;;;6.33;;
19016;SDS011;9641;51.494;6.670;2023-04-24T10:47:59;15.30;;;6.60;;
19016;SDS011;9641;51.494;6.670;2023-04-24T10:50:29;18.87;;;6.00;;
19016;SDS011;9641;51.494;6.670;2023-04-24T10:53:12;15.70;;;5.87;;
19016;SDS011;9641;51.494;6.670;2023-04-24T10:55:43;14.33;;;6.50;;
19016;SDS011;9641;51.494;6.670;2023-04-24T10:58:13;14.13;;;5.83;;
19016;SDS011;9641;51.494;6.670;2023-04-24T11:00:42;18.03;;;6.20;;
19016;SDS011;9641;51.494;6.670;2023-04-24T11:03:22;17.07;;;5.80;;
19016;SDS011;9641;51.494;6.670;2023-04-24T11:05:53;19.80;;;6.03;;
19016;SDS011;9641;51.494;6.670;2023-04-24T11:08:23;17.90;;;4.83;;
19016;SDS011;9641;51.494;6.670;2023-04-24T11:10:56;18.93;;;6.10;;
19016;SDS011;9641;51.494;6.670;2023-04-24T11:13:25;15.13;;;5.60;;
19016;SDS011;9641;51.494;6.670;2023-04-24T11:16:14;20.80;;;6.17;;
19016;SDS011;9641;51.494;6.670;2023-04-24T11:18:42;19.03;;;5.87;;
19016;SDS011;9641;51.494;6.670;2023-04-24T11:21:17;11.93;;;6.23;;
19016;SDS011;9641;51.494;6.670;2023-04-24T11:23:45;18.40;;;6.37;;
19016;SDS011;9641;51.494;6.670;2023-04-24T11:26:14;15.47;;;5.07;;
19016;SDS011;9641;51.494;6.670;2023-04-24T11:28:44;16.10;;;5.27;;
19016;SDS011;9641;51.494;6.670;2023-04-24T11:34:06;13.33;;;4.10;;
19016;SDS011;9641;51.494;6.670;2023-04-24T11:36:37;14.67;;;3.83;;
19016;SDS011;9641;51.494;6.670;2023-04-24T11:39:04;9.77;;;3.67;;
19016;SDS011;9641;51.494;6.670;2023-04-24T11:41:33;11.17;;;4.00;;
19016;SDS011;9641;51.494;6.670;2023-04-24T11:44:01;13.40;;;3.80;;
19016;SDS011;9641;51.494;6.670;2023-04-24T11:46:50;8.83;;;3.70;;
19016;SDS011;9641;51.494;6.670;2023-04-24T11:49:49;13.83;;;3.50;;
19016;SDS011;9641;51.494;6.670;2023-04-24T11:52:18;6.60;;;3.20;;
19016;SDS011;9641;51.494;6.670;2023-04-24T11:54:48;7.90;;;3.17;;
19016;SDS011;9641;51.494;6.670;2023-04-24T11:57:16;8.37;;;3.63;;
19016;SDS011;9641;51.494;6.670;2023-04-24T11:59:45;7.87;;;3.60;;
19016;SDS011;9641;51.494;6.670;2023-04-24T12:02:19;7.97;;;2.93;;
19016;SDS011;9641;51.494;6.670;2023-04-24T12:04:48;6.03;;;3.10;;
19016;SDS011;9641;51.494;6.670;2023-04-24T12:07:15;9.27;;;3.60;;
19016;SDS011;9641;51.494;6.670;2023-04-24T12:09:44;7.87;;;3.40;;
19016;SDS011;9641;51.494;6.670;2023-04-24T12:12:13;6.17;;;3.17;;
19016;SDS011;9641;51.494;6.670;2023-04-24T12:14:42;6.90;;;2.97;;
19016;SDS011;9641;51.494;6.670;2023-04-24T12:17:23;10.20;;;3.57;;
19016;SDS011;9641;51.494;6.670;2023-04-24T12:19:59;7.33;;;3.27;;
19016;SDS011;9641;51.494;6.670;2023-04-24T12:22:44;4.37;;;2.67;;
19016;SDS011;9641;51.494;6.670;2023-04-24T12:25:14;4.00;;;2.30;;
19016;SDS011;9641;51.494;6.670;2023-04-24T12:27:44;5.73;;;1.90;;
19016;SDS011;9641;51.494;6.670;2023-04-24T12:30:13;6.17;;;2.50;;
19016;SDS011;9641;51.494;6.670;2023-04-24T12:32:41;4.77;;;2.50;;
19016;SDS011;9641;51.494;6.670;2023-04-24T12:35:10;2.30;;;2.10;;
19016;SDS011;9641;51.494;6.670;2023-04-24T12:37:37;4.13;;;2.20;;
19016;SDS011;9641;51.494;6.670;2023-04-24T12:40:05;5.70;;;2.53;;
19016;SDS011;9641;51.494;6.670;2023-04-24T12:42:35;2.80;;;2.40;;
19016;SDS011;9641;51.494;6.670;2023-04-24T12:45:09;4.53;;;2.70;;
19016;SDS011;9641;51.494;6.670;2023-04-24T12:47:37;7.80;;;3.33;;
19016;SDS011;9641;51.494;6.670;2023-04-24T12:50:06;5.57;;;2.40;;
19016;SDS011;9641;51.494;6.670;2023-04-24T12:52:33;4.70;;;2.50;;
19016;SDS011;9641;51.494;6.670;2023-04-24T12:55:01;2.70;;;2.30;;
19016;SDS011;9641;51.494;6.670;2023-04-24T12:57:28;4.07;;;2.00;;
19016;SDS011;9641;51.494;6.670;2023-04-24T12:59:58;3.37;;;1.80;;
19016;SDS011;9641;51.494;6.670;2023-04-24T13:02:26;8.10;;;1.93;;
19016;SDS011;9641;51.494;6.670;2023-04-24T13:04:55;3.10;;;1.43;;
19016;SDS011;9641;51.494;6.670;2023-04-24T13:07:22;4.03;;;1.63;;
19016;SDS011;9641;51.494;6.670;2023-04-24T13:09:50;3.17;;;1.23;;
19016;SDS011;9641;51.494;6.670;2023-04-24T13:12:17;4.77;;;1.57;;
19016;SDS011;9641;51.494;6.670;2023-04-24T13:14:45;1.13;;;1.10;;
19016;SDS011;9641;51.494;6.670;2023-04-24T13:17:14;2.70;;;1.57;;
19016;SDS011;9641;51.494;6.670;2023-04-24T13:19:42;3.53;;;1.77;;
19016;SDS011;9641;51.494;6.670;2023-04-24T13:22:10;4.47;;;1.67;;
19016;SDS011;9641;51.494;6.670;2023-04-24T13:24:38;2.17;;;1.47;;
19016;SDS011;9641;51.494;6.670;2023-04-24T13:27:07;3.77;;;1.80;;
19016;SDS011;9641;51.494;6.670;2023-04-24T13:29:34;4.43;;;1.93;;
19016;SDS011;9641;51.494;6.670;2023-04-24T13:32:01;3.37;;;1.70;;
19016;SDS011;9641;51.494;6.670;2023-04-24T13:34:29;2.60;;;1.40;;
19016;SDS011;9641;51.494;6.670;2023-04-24T13:36:57;2.67;;;1.43;;
19016;SDS011;9641;51.494;6.670;2023-04-24T13:39:24;2.97;;;1.83;;
19016;SDS011;9641;51.494;6.670;2023-04-24T13:41:52;2.57;;;1.47;;
19016;SDS011;9641;51.494;6.670;2023-04-24T13:44:21;1.67;;;1.37;;
19016;SDS011;9641;51.494;6.670;2023-04-24T13:46:49;1.90;;;1.17;;
19016;SDS011;9641;51.494;6.670;2023-04-24T13:49:19;3.67;;;1.20;;
19016;SDS011;9641;51.494;6.670;2023-04-24T13:51:48;4.07;;;1.53;;
19016;SDS011;9641;51.494;6.670;2023-04-24T13:54:15;3.87;;;1.30;;
19016;SDS011;9641;51.494;6.670;2023-04-24T13:56:42;6.80;;;1.73;;
19016;SDS011;9641;51.494;6.670;2023-04-24T13:59:09;3.53;;;1.77;;
19016;SDS011;9641;51.494;6.670;2023-04-24T14:01:38;3.83;;;1.90;;
19016;SDS011;9641;51.494;6.670;2023-04-24T14:04:05;12.07;;;2.27;;
19016;SDS011;9641;51.494;6.670;2023-04-24T14:06:32;2.03;;;1.70;;
19016;SDS011;9641;51.494;6.670;2023-04-24T14:09:00;7.13;;;2.07;;
19016;SDS011;9641;51.494;6.670;2023-04-24T14:11:27;3.17;;;1.90;;
19016;SDS011;9641;51.494;6.670;2023-04-24T14:13:55;3.97;;;1.67;;
19016;SDS011;9641;51.494;6.670;2023-04-24T14:16:22;4.13;;;1.90;;
19016;SDS011;9641;51.494;6.670;2023-04-24T14:18:52;2.27;;;1.70;;
19016;SDS011;9641;51.494;6.670;2023-04-24T14:21:20;3.50;;;2.37;;
19016;SDS011;9641;51.494;6.670;2023-04-24T14:23:47;2.90;;;1.70;;
19016;SDS011;9641;51.494;6.670;2023-04-24T14:26:15;3.13;;;2.10;;
19016;SDS011;9641;51.494;6.670;2023-04-24T14:28:42;6.20;;;2.07;;
19016;SDS011;9641;51.494;6.670;2023-04-24T14:31:09;5.20;;;2.60;;
19016;SDS011;9641;51.494;6.670;2023-04-24T14:33:36;6.17;;;2.40;;
19016;SDS011;9641;51.494;6.670;2023-04-24T14:36:05;2.20;;;2.10;;
19016;SDS011;9641;51.494;6.670;2023-04-24T14:38:35;4.63;;;2.47;;
19016;SDS011;9641;51.494;6.670;2023-04-24T14:41:05;4.83;;;2.90;;
19016;SDS011;9641;51.494;6.670;2023-04-24T14:43:35;3.77;;;2.50;;
19016;SDS011;9641;51.494;6.670;2023-04-24T14:46:04;4.27;;;2.30;;
19016;SDS011;9641;51.494;6.670;2023-04-24T14:48:31;3.77;;;2.50;;
19016;SDS011;9641;51.494;6.670;2023-04-24T14:50:59;6.67;;;2.27;;
19016;SDS011;9641;51.494;6.670;2023-04-24T14:53:26;3.70;;;1.97;;
19016;SDS011;9641;51.494;6.670;2023-04-24T14:55:53;3.77;;;1.93;;
19016;SDS011;9641;51.494;6.670;2023-04-24T14:58:20;3.97;;;1.40;;
19016;SDS011;9641;51.494;6.670;2023-04-24T15:00:49;3.77;;;1.60;;
19016;SDS011;9641;51.494;6.670;2023-04-24T15:03:19;4.03;;;1.50;;
19016;SDS011;9641;51.494;6.670;2023-04-24T15:05:46;2.70;;;1.40;;
19016;SDS011;9641;51.494;6.670;2023-04-24T15:08:13;1.30;;;1.10;;